sensor_id;sensor_type;location;lat;lon;timestamp;P1;durP1;ratioP1;P2;durP2;ratioP2
27670;SDS011;15077;49.704;9.908;2023-01-19T00:02:23;15.77;;;10.38;;
27670;SDS011;15077;49.704;9.908;2023-01-19T00:04:49;17.23;;;10.80;;
27670;SDS011;15077;49.704;9.908;2023-01-19T00:07:15;18.40;;;11.80;;
27670;SDS011;15077;49.704;9.908;2023-01-19T00:09:41;18.52;;;11.82;;
27670;SDS011;15077;49.704;9.908;2023-01-19T00:12:07;18.17;;;10.80;;
27670;SDS011;15077;49.704;9.908;2023-01-19T00:14:33;18.15;;;11.75;;
27670;SDS011;15077;49.704;9.908;2023-01-19T00:16:58;19.02;;;10.38;;
27670;SDS011;15077;49.704;9.908;2023-01-19T00:19:25;23.42;;;11.68;;
27670;SDS011;15077;49.704;9.908;2023-01-19T00:21:54;23.67;;;12.55;;
27670;SDS011;15077;49.704;9.908;2023-01-19T00:24:20;22.38;;;13.50;;
27670;SDS011;15077;49.704;9.908;2023-01-19T00:26:46;21.98;;;12.23;;
27670;SDS011;15077;49.704;9.908;2023-01-19T00:29:12;18.40;;;10.82;;
27670;SDS011;15077;49.704;9.908;2023-01-19T00:31:39;17.13;;;9.60;;
27670;SDS011;15077;49.704;9.908;2023-01-19T00:34:05;18.75;;;9.90;;
27670;SDS011;15077;49.704;9.908;2023-01-19T00:36:31;19.02;;;11.60;;
27670;SDS011;15077;49.704;9.908;2023-01-19T00:38:58;21.17;;;12.35;;
27670;SDS011;15077;49.704;9.908;2023-01-19T00:41:24;22.98;;;11.25;;
27670;SDS011;15077;49.704;9.908;2023-01-19T00:44:10;23.55;;;13.45;;
27670;SDS011;15077;49.704;9.908;2023-01-19T00:46:36;22.73;;;13.50;;
27670;SDS011;15077;49.704;9.908;2023-01-19T00:49:03;21.15;;;11.98;;
27670;SDS011;15077;49.704;9.908;2023-01-19T00:51:30;22.33;;;13.05;;
27670;SDS011;15077;49.704;9.908;2023-01-19T00:53:57;23.75;;;12.35;;
27670;SDS011;15077;49.704;9.908;2023-01-19T00:58:56;20.40;;;11.57;;
27670;SDS011;15077;49.704;9.908;2023-01-19T01:01:25;20.90;;;13.15;;
27670;SDS011;15077;49.704;9.908;2023-01-19T01:03:50;19.23;;;11.50;;
27670;SDS011;15077;49.704;9.908;2023-01-19T01:06:18;21.55;;;12.77;;
27670;SDS011;15077;49.704;9.908;2023-01-19T01:08:46;21.52;;;12.63;;
27670;SDS011;15077;49.704;9.908;2023-01-19T01:11:11;21.77;;;12.68;;
27670;SDS011;15077;49.704;9.908;2023-01-19T01:13:38;22.80;;;13.23;;
27670;SDS011;15077;49.704;9.908;2023-01-19T01:16:06;23.10;;;12.23;;
27670;SDS011;15077;49.704;9.908;2023-01-19T01:18:33;18.52;;;12.07;;
27670;SDS011;15077;49.704;9.908;2023-01-19T01:21:04;22.17;;;12.68;;
27670;SDS011;15077;49.704;9.908;2023-01-19T01:23:33;27.52;;;14.00;;
27670;SDS011;15077;49.704;9.908;2023-01-19T01:25:59;24.75;;;12.98;;
27670;SDS011;15077;49.704;9.908;2023-01-19T01:28:25;22.75;;;11.68;;
27670;SDS011;15077;49.704;9.908;2023-01-19T01:30:54;22.52;;;12.80;;
27670;SDS011;15077;49.704;9.908;2023-01-19T01:33:22;18.17;;;12.15;;
27670;SDS011;15077;49.704;9.908;2023-01-19T01:35:48;19.08;;;12.07;;
27670;SDS011;15077;49.704;9.908;2023-01-19T01:38:16;22.02;;;12.38;;
27670;SDS011;15077;49.704;9.908;2023-01-19T01:40:42;19.08;;;12.80;;
27670;SDS011;15077;49.704;9.908;2023-01-19T01:43:11;23.23;;;14.55;;
27670;SDS011;15077;49.704;9.908;2023-01-19T01:45:39;23.70;;;13.85;;
27670;SDS011;15077;49.704;9.908;2023-01-19T01:48:10;25.48;;;14.32;;
27670;SDS011;15077;49.704;9.908;2023-01-19T01:51:28;20.27;;;12.18;;
27670;SDS011;15077;49.704;9.908;2023-01-19T01:56:34;23.75;;;13.70;;
27670;SDS011;15077;49.704;9.908;2023-01-19T01:59:08;20.10;;;13.50;;
27670;SDS011;15077;49.704;9.908;2023-01-19T02:02:05;24.58;;;13.73;;
27670;SDS011;15077;49.704;9.908;2023-01-19T02:04:57;24.50;;;15.40;;
27670;SDS011;15077;49.704;9.908;2023-01-19T02:07:47;21.67;;;13.65;;
27670;SDS011;15077;49.704;9.908;2023-01-19T02:10:45;20.67;;;12.27;;
27670;SDS011;15077;49.704;9.908;2023-01-19T02:13:35;27.27;;;14.80;;
27670;SDS011;15077;49.704;9.908;2023-01-19T02:16:08;20.52;;;13.13;;
27670;SDS011;15077;49.704;9.908;2023-01-19T02:18:38;24.83;;;12.13;;
27670;SDS011;15077;49.704;9.908;2023-01-19T02:21:40;22.02;;;12.65;;
27670;SDS011;15077;49.704;9.908;2023-01-19T02:24:08;20.55;;;11.80;;
27670;SDS011;15077;49.704;9.908;2023-01-19T02:26:35;24.77;;;13.43;;
27670;SDS011;15077;49.704;9.908;2023-01-19T02:29:16;25.42;;;11.27;;
27670;SDS011;15077;49.704;9.908;2023-01-19T02:31:49;23.98;;;12.65;;
27670;SDS011;15077;49.704;9.908;2023-01-19T02:34:17;21.20;;;11.88;;
27670;SDS011;15077;49.704;9.908;2023-01-19T02:36:47;21.55;;;11.70;;
27670;SDS011;15077;49.704;9.908;2023-01-19T02:39:20;20.70;;;11.68;;
27670;SDS011;15077;49.704;9.908;2023-01-19T02:42:17;21.90;;;12.50;;
27670;SDS011;15077;49.704;9.908;2023-01-19T02:44:55;25.67;;;14.27;;
27670;SDS011;15077;49.704;9.908;2023-01-19T02:47:23;19.80;;;12.38;;
27670;SDS011;15077;49.704;9.908;2023-01-19T02:49:53;20.55;;;12.18;;
27670;SDS011;15077;49.704;9.908;2023-01-19T02:52:23;27.35;;;13.63;;
27670;SDS011;15077;49.704;9.908;2023-01-19T03:05:56;22.58;;;13.95;;
27670;SDS011;15077;49.704;9.908;2023-01-19T03:09:02;22.42;;;14.13;;
27670;SDS011;15077;49.704;9.908;2023-01-19T03:11:40;22.08;;;13.55;;
27670;SDS011;15077;49.704;9.908;2023-01-19T03:14:13;24.67;;;14.50;;
27670;SDS011;15077;49.704;9.908;2023-01-19T03:16:48;18.35;;;10.57;;
27670;SDS011;15077;49.704;9.908;2023-01-19T03:19:33;19.30;;;11.90;;
27670;SDS011;15077;49.704;9.908;2023-01-19T03:22:08;21.35;;;11.85;;
27670;SDS011;15077;49.704;9.908;2023-01-19T03:24:44;23.05;;;14.13;;
27670;SDS011;15077;49.704;9.908;2023-01-19T03:27:16;19.92;;;11.95;;
27670;SDS011;15077;49.704;9.908;2023-01-19T03:30:11;23.98;;;13.55;;
27670;SDS011;15077;49.704;9.908;2023-01-19T03:32:58;20.55;;;12.60;;
27670;SDS011;15077;49.704;9.908;2023-01-19T03:35:34;18.65;;;12.38;;
27670;SDS011;15077;49.704;9.908;2023-01-19T03:38:05;26.40;;;13.40;;
27670;SDS011;15077;49.704;9.908;2023-01-19T03:40:39;25.52;;;15.18;;
27670;SDS011;15077;49.704;9.908;2023-01-19T03:43:06;23.85;;;13.75;;
27670;SDS011;15077;49.704;9.908;2023-01-19T03:45:35;23.58;;;13.90;;
27670;SDS011;15077;49.704;9.908;2023-01-19T03:48:03;23.90;;;15.35;;
27670;SDS011;15077;49.704;9.908;2023-01-19T03:50:30;28.55;;;17.33;;
27670;SDS011;15077;49.704;9.908;2023-01-19T03:53:00;26.65;;;15.00;;
27670;SDS011;15077;49.704;9.908;2023-01-19T03:55:41;28.40;;;15.23;;
27670;SDS011;15077;49.704;9.908;2023-01-19T03:58:11;20.65;;;13.23;;
27670;SDS011;15077;49.704;9.908;2023-01-19T04:00:37;23.00;;;12.68;;
27670;SDS011;15077;49.704;9.908;2023-01-19T04:03:03;21.77;;;12.35;;
27670;SDS011;15077;49.704;9.908;2023-01-19T04:05:36;25.95;;;13.15;;
27670;SDS011;15077;49.704;9.908;2023-01-19T04:08:02;23.92;;;12.73;;
27670;SDS011;15077;49.704;9.908;2023-01-19T04:10:28;24.08;;;14.13;;
27670;SDS011;15077;49.704;9.908;2023-01-19T04:12:57;20.85;;;12.57;;
27670;SDS011;15077;49.704;9.908;2023-01-19T04:15:25;19.63;;;12.43;;
27670;SDS011;15077;49.704;9.908;2023-01-19T04:17:53;20.27;;;12.10;;
27670;SDS011;15077;49.704;9.908;2023-01-19T04:20:21;22.23;;;13.25;;
27670;SDS011;15077;49.704;9.908;2023-01-19T04:22:47;17.50;;;12.40;;
27670;SDS011;15077;49.704;9.908;2023-01-19T04:25:13;21.50;;;12.65;;
27670;SDS011;15077;49.704;9.908;2023-01-19T04:27:40;20.92;;;12.55;;
27670;SDS011;15077;49.704;9.908;2023-01-19T04:30:06;21.33;;;12.73;;
27670;SDS011;15077;49.704;9.908;2023-01-19T04:32:34;17.67;;;10.55;;
27670;SDS011;15077;49.704;9.908;2023-01-19T04:35:00;17.48;;;11.70;;
27670;SDS011;15077;49.704;9.908;2023-01-19T04:37:26;18.20;;;11.88;;
27670;SDS011;15077;49.704;9.908;2023-01-19T04:39:52;17.95;;;11.70;;
27670;SDS011;15077;49.704;9.908;2023-01-19T04:42:18;22.20;;;13.20;;
27670;SDS011;15077;49.704;9.908;2023-01-19T04:44:44;26.00;;;14.00;;
27670;SDS011;15077;49.704;9.908;2023-01-19T04:47:10;26.20;;;15.45;;
27670;SDS011;15077;49.704;9.908;2023-01-19T04:49:38;26.88;;;16.05;;
27670;SDS011;15077;49.704;9.908;2023-01-19T04:52:04;23.25;;;13.65;;
27670;SDS011;15077;49.704;9.908;2023-01-19T04:54:31;23.98;;;14.50;;
27670;SDS011;15077;49.704;9.908;2023-01-19T04:56:59;21.25;;;13.57;;
27670;SDS011;15077;49.704;9.908;2023-01-19T04:59:25;21.48;;;14.00;;
27670;SDS011;15077;49.704;9.908;2023-01-19T05:01:50;22.05;;;15.43;;
27670;SDS011;15077;49.704;9.908;2023-01-19T05:04:16;25.90;;;15.73;;
27670;SDS011;15077;49.704;9.908;2023-01-19T05:06:42;27.88;;;15.98;;
27670;SDS011;15077;49.704;9.908;2023-01-19T05:09:08;28.52;;;15.98;;
27670;SDS011;15077;49.704;9.908;2023-01-19T05:11:37;24.05;;;13.43;;
27670;SDS011;15077;49.704;9.908;2023-01-19T05:14:03;24.85;;;13.88;;
27670;SDS011;15077;49.704;9.908;2023-01-19T05:16:29;23.45;;;13.40;;
27670;SDS011;15077;49.704;9.908;2023-01-19T05:18:54;28.95;;;14.75;;
27670;SDS011;15077;49.704;9.908;2023-01-19T05:21:20;26.38;;;14.73;;
27670;SDS011;15077;49.704;9.908;2023-01-19T05:23:46;23.67;;;14.15;;
27670;SDS011;15077;49.704;9.908;2023-01-19T05:26:12;27.17;;;14.98;;
27670;SDS011;15077;49.704;9.908;2023-01-19T05:28:37;29.00;;;15.13;;
27670;SDS011;15077;49.704;9.908;2023-01-19T05:31:03;28.10;;;15.32;;
27670;SDS011;15077;49.704;9.908;2023-01-19T05:33:29;22.80;;;14.57;;
27670;SDS011;15077;49.704;9.908;2023-01-19T05:35:55;24.00;;;14.32;;
27670;SDS011;15077;49.704;9.908;2023-01-19T05:38:21;23.75;;;14.63;;
27670;SDS011;15077;49.704;9.908;2023-01-19T05:40:47;24.50;;;14.52;;
27670;SDS011;15077;49.704;9.908;2023-01-19T05:43:14;25.08;;;15.18;;
27670;SDS011;15077;49.704;9.908;2023-01-19T05:45:39;22.90;;;14.48;;
27670;SDS011;15077;49.704;9.908;2023-01-19T05:48:06;28.17;;;15.88;;
27670;SDS011;15077;49.704;9.908;2023-01-19T05:50:33;25.63;;;15.23;;
27670;SDS011;15077;49.704;9.908;2023-01-19T05:52:59;24.67;;;14.20;;
27670;SDS011;15077;49.704;9.908;2023-01-19T05:55:26;27.60;;;15.63;;
27670;SDS011;15077;49.704;9.908;2023-01-19T05:57:52;26.35;;;15.65;;
27670;SDS011;15077;49.704;9.908;2023-01-19T06:00:18;25.30;;;13.68;;
27670;SDS011;15077;49.704;9.908;2023-01-19T06:02:44;26.00;;;15.73;;
27670;SDS011;15077;49.704;9.908;2023-01-19T06:05:14;23.08;;;15.10;;
27670;SDS011;15077;49.704;9.908;2023-01-19T06:07:40;24.10;;;15.20;;
27670;SDS011;15077;49.704;9.908;2023-01-19T06:10:06;27.13;;;17.05;;
27670;SDS011;15077;49.704;9.908;2023-01-19T06:12:33;24.23;;;14.77;;
27670;SDS011;15077;49.704;9.908;2023-01-19T06:14:59;22.30;;;13.95;;
27670;SDS011;15077;49.704;9.908;2023-01-19T06:17:25;26.63;;;14.23;;
27670;SDS011;15077;49.704;9.908;2023-01-19T06:19:51;24.70;;;14.00;;
27670;SDS011;15077;49.704;9.908;2023-01-19T06:22:16;21.83;;;13.55;;
27670;SDS011;15077;49.704;9.908;2023-01-19T06:24:42;25.17;;;14.60;;
27670;SDS011;15077;49.704;9.908;2023-01-19T06:27:08;23.77;;;13.50;;
27670;SDS011;15077;49.704;9.908;2023-01-19T06:29:35;26.23;;;15.02;;
27670;SDS011;15077;49.704;9.908;2023-01-19T06:32:00;21.08;;;13.70;;
27670;SDS011;15077;49.704;9.908;2023-01-19T06:34:26;21.83;;;12.52;;
27670;SDS011;15077;49.704;9.908;2023-01-19T06:36:56;29.63;;;15.40;;
27670;SDS011;15077;49.704;9.908;2023-01-19T06:39:22;25.83;;;14.38;;
27670;SDS011;15077;49.704;9.908;2023-01-19T06:41:48;24.65;;;15.15;;
27670;SDS011;15077;49.704;9.908;2023-01-19T06:44:13;22.05;;;13.32;;
27670;SDS011;15077;49.704;9.908;2023-01-19T06:46:39;25.80;;;15.52;;
27670;SDS011;15077;49.704;9.908;2023-01-19T06:49:05;22.65;;;15.32;;
27670;SDS011;15077;49.704;9.908;2023-01-19T06:51:32;26.98;;;14.68;;
27670;SDS011;15077;49.704;9.908;2023-01-19T06:53:57;21.83;;;12.73;;
27670;SDS011;15077;49.704;9.908;2023-01-19T06:56:23;23.42;;;13.63;;
27670;SDS011;15077;49.704;9.908;2023-01-19T06:58:49;24.13;;;13.15;;
27670;SDS011;15077;49.704;9.908;2023-01-19T07:01:17;22.27;;;12.77;;
27670;SDS011;15077;49.704;9.908;2023-01-19T07:03:42;22.73;;;12.43;;
27670;SDS011;15077;49.704;9.908;2023-01-19T07:06:08;19.42;;;13.50;;
27670;SDS011;15077;49.704;9.908;2023-01-19T07:08:34;19.88;;;12.95;;
27670;SDS011;15077;49.704;9.908;2023-01-19T07:11:02;23.27;;;14.07;;
27670;SDS011;15077;49.704;9.908;2023-01-19T07:13:35;24.67;;;15.60;;
27670;SDS011;15077;49.704;9.908;2023-01-19T07:18:34;30.40;;;16.70;;
27670;SDS011;15077;49.704;9.908;2023-01-19T07:21:01;23.67;;;14.88;;
27670;SDS011;15077;49.704;9.908;2023-01-19T07:23:28;21.35;;;14.10;;
27670;SDS011;15077;49.704;9.908;2023-01-19T07:25:57;20.67;;;12.05;;
27670;SDS011;15077;49.704;9.908;2023-01-19T07:28:27;20.77;;;13.10;;
27670;SDS011;15077;49.704;9.908;2023-01-19T07:30:55;21.27;;;12.40;;
27670;SDS011;15077;49.704;9.908;2023-01-19T07:33:21;19.70;;;12.55;;
27670;SDS011;15077;49.704;9.908;2023-01-19T07:35:49;19.67;;;11.20;;
27670;SDS011;15077;49.704;9.908;2023-01-19T07:38:16;22.70;;;13.68;;
27670;SDS011;15077;49.704;9.908;2023-01-19T07:40:43;35.65;;;19.75;;
27670;SDS011;15077;49.704;9.908;2023-01-19T07:43:11;53.50;;;26.70;;
27670;SDS011;15077;49.704;9.908;2023-01-19T07:45:38;55.78;;;33.22;;
27670;SDS011;15077;49.704;9.908;2023-01-19T07:48:03;74.50;;;39.00;;
27670;SDS011;15077;49.704;9.908;2023-01-19T07:50:29;49.25;;;26.20;;
27670;SDS011;15077;49.704;9.908;2023-01-19T07:52:55;25.80;;;14.70;;
27670;SDS011;15077;49.704;9.908;2023-01-19T07:55:22;18.80;;;11.50;;
27670;SDS011;15077;49.704;9.908;2023-01-19T07:57:49;17.67;;;10.23;;
27670;SDS011;15077;49.704;9.908;2023-01-19T08:00:18;17.10;;;11.10;;
27670;SDS011;15077;49.704;9.908;2023-01-19T08:02:48;18.55;;;11.73;;
27670;SDS011;15077;49.704;9.908;2023-01-19T08:05:16;20.67;;;11.00;;
27670;SDS011;15077;49.704;9.908;2023-01-19T08:07:43;21.55;;;12.10;;
27670;SDS011;15077;49.704;9.908;2023-01-19T08:10:11;16.98;;;11.48;;
27670;SDS011;15077;49.704;9.908;2023-01-19T08:12:38;19.05;;;11.85;;
27670;SDS011;15077;49.704;9.908;2023-01-19T08:15:06;19.63;;;12.02;;
27670;SDS011;15077;49.704;9.908;2023-01-19T08:17:33;28.98;;;16.02;;
27670;SDS011;15077;49.704;9.908;2023-01-19T08:20:00;40.63;;;22.70;;
27670;SDS011;15077;49.704;9.908;2023-01-19T08:22:26;45.03;;;23.02;;
27670;SDS011;15077;49.704;9.908;2023-01-19T08:24:52;35.17;;;16.92;;
27670;SDS011;15077;49.704;9.908;2023-01-19T08:27:18;23.85;;;14.68;;
27670;SDS011;15077;49.704;9.908;2023-01-19T08:29:45;21.98;;;14.85;;
27670;SDS011;15077;49.704;9.908;2023-01-19T08:32:10;25.35;;;14.70;;
27670;SDS011;15077;49.704;9.908;2023-01-19T08:34:36;20.30;;;12.43;;
27670;SDS011;15077;49.704;9.908;2023-01-19T08:37:02;21.38;;;12.00;;
27670;SDS011;15077;49.704;9.908;2023-01-19T08:39:28;17.70;;;12.07;;
27670;SDS011;15077;49.704;9.908;2023-01-19T08:41:54;20.83;;;12.43;;
27670;SDS011;15077;49.704;9.908;2023-01-19T08:44:20;23.23;;;12.95;;
27670;SDS011;15077;49.704;9.908;2023-01-19T08:46:46;19.77;;;13.32;;
27670;SDS011;15077;49.704;9.908;2023-01-19T08:49:12;19.35;;;11.50;;
27670;SDS011;15077;49.704;9.908;2023-01-19T08:51:38;18.00;;;11.95;;
27670;SDS011;15077;49.704;9.908;2023-01-19T08:54:04;17.95;;;10.95;;
27670;SDS011;15077;49.704;9.908;2023-01-19T08:56:29;19.02;;;11.00;;
27670;SDS011;15077;49.704;9.908;2023-01-19T08:58:55;16.40;;;10.23;;
27670;SDS011;15077;49.704;9.908;2023-01-19T09:01:21;17.58;;;10.15;;
27670;SDS011;15077;49.704;9.908;2023-01-19T09:03:47;16.40;;;11.07;;
27670;SDS011;15077;49.704;9.908;2023-01-19T09:06:14;17.15;;;10.63;;
27670;SDS011;15077;49.704;9.908;2023-01-19T09:08:44;17.52;;;10.70;;
27670;SDS011;15077;49.704;9.908;2023-01-19T09:11:11;19.95;;;11.38;;
27670;SDS011;15077;49.704;9.908;2023-01-19T09:13:40;19.33;;;11.27;;
27670;SDS011;15077;49.704;9.908;2023-01-19T09:16:06;23.00;;;13.38;;
27670;SDS011;15077;49.704;9.908;2023-01-19T09:18:33;20.17;;;12.77;;
27670;SDS011;15077;49.704;9.908;2023-01-19T09:20:59;20.38;;;13.27;;
27670;SDS011;15077;49.704;9.908;2023-01-19T09:23:26;32.10;;;21.08;;
27670;SDS011;15077;49.704;9.908;2023-01-19T09:25:56;31.10;;;18.83;;
27670;SDS011;15077;49.704;9.908;2023-01-19T09:28:25;26.90;;;17.25;;
27670;SDS011;15077;49.704;9.908;2023-01-19T09:30:53;22.95;;;14.85;;
27670;SDS011;15077;49.704;9.908;2023-01-19T09:33:19;23.45;;;13.63;;
27670;SDS011;15077;49.704;9.908;2023-01-19T09:35:46;21.10;;;14.52;;
27670;SDS011;15077;49.704;9.908;2023-01-19T09:38:16;22.70;;;12.85;;
27670;SDS011;15077;49.704;9.908;2023-01-19T09:43:58;18.80;;;12.07;;
27670;SDS011;15077;49.704;9.908;2023-01-19T09:49:04;17.52;;;10.48;;
27670;SDS011;15077;49.704;9.908;2023-01-19T09:51:50;15.52;;;10.52;;
27670;SDS011;15077;49.704;9.908;2023-01-19T09:54:20;17.65;;;10.55;;
27670;SDS011;15077;49.704;9.908;2023-01-19T09:56:52;13.00;;;8.35;;
27670;SDS011;15077;49.704;9.908;2023-01-19T10:07:23;16.20;;;11.82;;
27670;SDS011;15077;49.704;9.908;2023-01-19T10:10:20;13.02;;;9.25;;
27670;SDS011;15077;49.704;9.908;2023-01-19T10:16:02;17.08;;;11.00;;
27670;SDS011;15077;49.704;9.908;2023-01-19T10:18:42;15.15;;;9.75;;
27670;SDS011;15077;49.704;9.908;2023-01-19T10:23:50;15.68;;;10.10;;
27670;SDS011;15077;49.704;9.908;2023-01-19T10:26:40;15.48;;;10.32;;
27670;SDS011;15077;49.704;9.908;2023-01-19T10:29:14;15.75;;;10.15;;
27670;SDS011;15077;49.704;9.908;2023-01-19T10:34:41;13.98;;;10.20;;
27670;SDS011;15077;49.704;9.908;2023-01-19T10:39:56;19.80;;;11.95;;
27670;SDS011;15077;49.704;9.908;2023-01-19T10:42:52;28.95;;;15.80;;
27670;SDS011;15077;49.704;9.908;2023-01-19T10:45:21;22.23;;;12.80;;
27670;SDS011;15077;49.704;9.908;2023-01-19T10:47:54;21.88;;;12.18;;
27670;SDS011;15077;49.704;9.908;2023-01-19T10:50:46;20.00;;;11.55;;
27670;SDS011;15077;49.704;9.908;2023-01-19T10:53:28;19.25;;;11.45;;
27670;SDS011;15077;49.704;9.908;2023-01-19T10:58:46;22.17;;;12.85;;
27670;SDS011;15077;49.704;9.908;2023-01-19T11:01:30;18.73;;;11.93;;
27670;SDS011;15077;49.704;9.908;2023-01-19T11:04:01;20.50;;;11.20;;
27670;SDS011;15077;49.704;9.908;2023-01-19T11:06:51;22.35;;;14.18;;
27670;SDS011;15077;49.704;9.908;2023-01-19T11:09:17;25.35;;;14.88;;
27670;SDS011;15077;49.704;9.908;2023-01-19T11:11:46;22.58;;;13.52;;
27670;SDS011;15077;49.704;9.908;2023-01-19T11:14:19;32.58;;;18.75;;
27670;SDS011;15077;49.704;9.908;2023-01-19T11:16:49;28.27;;;15.90;;
27670;SDS011;15077;49.704;9.908;2023-01-19T11:19:20;22.37;;;13.27;;
27670;SDS011;15077;49.704;9.908;2023-01-19T11:21:52;17.27;;;11.70;;
27670;SDS011;15077;49.704;9.908;2023-01-19T11:24:49;18.98;;;12.00;;
27670;SDS011;15077;49.704;9.908;2023-01-19T11:27:15;19.50;;;10.98;;
27670;SDS011;15077;49.704;9.908;2023-01-19T11:29:48;18.00;;;11.27;;
27670;SDS011;15077;49.704;9.908;2023-01-19T11:32:24;35.53;;;20.38;;
27670;SDS011;15077;49.704;9.908;2023-01-19T11:34:57;32.38;;;19.92;;
27670;SDS011;15077;49.704;9.908;2023-01-19T11:37:28;29.23;;;19.35;;
27670;SDS011;15077;49.704;9.908;2023-01-19T11:39:58;20.67;;;15.77;;
27670;SDS011;15077;49.704;9.908;2023-01-19T11:42:27;20.13;;;13.52;;
27670;SDS011;15077;49.704;9.908;2023-01-19T11:45:02;18.30;;;12.20;;
27670;SDS011;15077;49.704;9.908;2023-01-19T11:47:42;26.63;;;20.20;;
27670;SDS011;15077;49.704;9.908;2023-01-19T11:58:18;14.43;;;10.88;;
27670;SDS011;15077;49.704;9.908;2023-01-19T12:00:47;24.05;;;14.43;;
27670;SDS011;15077;49.704;9.908;2023-01-19T12:03:43;19.02;;;12.30;;
27670;SDS011;15077;49.704;9.908;2023-01-19T12:06:19;21.95;;;13.02;;
27670;SDS011;15077;49.704;9.908;2023-01-19T12:08:53;16.42;;;10.82;;
27670;SDS011;15077;49.704;9.908;2023-01-19T12:11:26;19.73;;;10.65;;
27670;SDS011;15077;49.704;9.908;2023-01-19T12:14:01;15.25;;;10.95;;
27670;SDS011;15077;49.704;9.908;2023-01-19T12:16:29;13.52;;;10.13;;
27670;SDS011;15077;49.704;9.908;2023-01-19T12:19:03;18.90;;;14.48;;
27670;SDS011;15077;49.704;9.908;2023-01-19T12:21:38;17.63;;;12.02;;
27670;SDS011;15077;49.704;9.908;2023-01-19T12:26:56;15.48;;;11.05;;
27670;SDS011;15077;49.704;9.908;2023-01-19T12:29:30;19.55;;;11.75;;
27670;SDS011;15077;49.704;9.908;2023-01-19T12:34:41;18.73;;;12.25;;
27670;SDS011;15077;49.704;9.908;2023-01-19T12:37:53;13.05;;;9.35;;
27670;SDS011;15077;49.704;9.908;2023-01-19T12:40:03;16.05;;;9.98;;
27670;SDS011;15077;49.704;9.908;2023-01-19T12:43:04;15.60;;;10.65;;
27670;SDS011;15077;49.704;9.908;2023-01-19T12:45:34;14.48;;;9.82;;
27670;SDS011;15077;49.704;9.908;2023-01-19T12:48:03;13.00;;;9.27;;
27670;SDS011;15077;49.704;9.908;2023-01-19T12:50:36;14.07;;;9.18;;
27670;SDS011;15077;49.704;9.908;2023-01-19T12:53:03;14.05;;;8.70;;
27670;SDS011;15077;49.704;9.908;2023-01-19T12:55:42;14.35;;;9.88;;
27670;SDS011;15077;49.704;9.908;2023-01-19T12:58:19;15.52;;;9.68;;
27670;SDS011;15077;49.704;9.908;2023-01-19T13:00:48;13.30;;;10.13;;
27670;SDS011;15077;49.704;9.908;2023-01-19T13:14:39;14.38;;;9.50;;
27670;SDS011;15077;49.704;9.908;2023-01-19T13:17:19;16.88;;;11.38;;
27670;SDS011;15077;49.704;9.908;2023-01-19T13:19:59;14.38;;;10.38;;
27670;SDS011;15077;49.704;9.908;2023-01-19T13:25:47;17.83;;;12.02;;
27670;SDS011;15077;49.704;9.908;2023-01-19T13:28:18;16.00;;;10.63;;
27670;SDS011;15077;49.704;9.908;2023-01-19T13:30:55;15.48;;;10.98;;
27670;SDS011;15077;49.704;9.908;2023-01-19T13:33:24;14.98;;;10.65;;
27670;SDS011;15077;49.704;9.908;2023-01-19T13:35:56;15.43;;;10.02;;
27670;SDS011;15077;49.704;9.908;2023-01-19T13:38:23;15.13;;;9.65;;
27670;SDS011;15077;49.704;9.908;2023-01-19T13:40:52;18.25;;;11.15;;
27670;SDS011;15077;49.704;9.908;2023-01-19T13:43:23;16.05;;;11.07;;
27670;SDS011;15077;49.704;9.908;2023-01-19T13:45:53;17.08;;;10.38;;
27670;SDS011;15077;49.704;9.908;2023-01-19T13:48:21;23.35;;;13.60;;
27670;SDS011;15077;49.704;9.908;2023-01-19T13:50:59;13.82;;;10.60;;
27670;SDS011;15077;49.704;9.908;2023-01-19T13:53:29;20.05;;;12.80;;
27670;SDS011;15077;49.704;9.908;2023-01-19T13:56:09;17.13;;;11.98;;
27670;SDS011;15077;49.704;9.908;2023-01-19T13:58:57;16.05;;;11.15;;
27670;SDS011;15077;49.704;9.908;2023-01-19T14:01:25;19.17;;;13.07;;
27670;SDS011;15077;49.704;9.908;2023-01-19T14:03:53;17.23;;;12.70;;
27670;SDS011;15077;49.704;9.908;2023-01-19T14:06:20;16.52;;;11.00;;
27670;SDS011;15077;49.704;9.908;2023-01-19T14:14:41;14.45;;;9.10;;
27670;SDS011;15077;49.704;9.908;2023-01-19T14:17:27;13.45;;;9.73;;
27670;SDS011;15077;49.704;9.908;2023-01-19T14:19:56;17.02;;;11.38;;
27670;SDS011;15077;49.704;9.908;2023-01-19T14:22:38;23.33;;;14.63;;
27670;SDS011;15077;49.704;9.908;2023-01-19T14:25:30;45.53;;;26.50;;
27670;SDS011;15077;49.704;9.908;2023-01-19T14:31:18;58.22;;;30.88;;
27670;SDS011;15077;49.704;9.908;2023-01-19T14:33:51;66.70;;;32.03;;
27670;SDS011;15077;49.704;9.908;2023-01-19T14:38:48;41.60;;;21.65;;
27670;SDS011;15077;49.704;9.908;2023-01-19T14:41:22;29.33;;;16.23;;
27670;SDS011;15077;49.704;9.908;2023-01-19T14:43:57;29.35;;;14.75;;
27670;SDS011;15077;49.704;9.908;2023-01-19T14:46:24;39.22;;;19.92;;
27670;SDS011;15077;49.704;9.908;2023-01-19T14:48:51;34.80;;;16.58;;
27670;SDS011;15077;49.704;9.908;2023-01-19T14:51:25;38.92;;;18.13;;
27670;SDS011;15077;49.704;9.908;2023-01-19T14:53:53;27.70;;;13.88;;
27670;SDS011;15077;49.704;9.908;2023-01-19T14:56:27;26.17;;;12.30;;
27670;SDS011;15077;49.704;9.908;2023-01-19T14:58:57;35.83;;;15.65;;
27670;SDS011;15077;49.704;9.908;2023-01-19T15:01:25;22.08;;;12.90;;
27670;SDS011;15077;49.704;9.908;2023-01-19T15:03:53;41.15;;;17.70;;
27670;SDS011;15077;49.704;9.908;2023-01-19T15:06:22;38.45;;;19.58;;
27670;SDS011;15077;49.704;9.908;2023-01-19T15:08:50;31.42;;;16.77;;
27670;SDS011;15077;49.704;9.908;2023-01-19T15:11:21;41.88;;;21.02;;
27670;SDS011;15077;49.704;9.908;2023-01-19T15:13:59;37.22;;;18.10;;
27670;SDS011;15077;49.704;9.908;2023-01-19T15:16:26;44.92;;;18.75;;
27670;SDS011;15077;49.704;9.908;2023-01-19T15:18:55;45.90;;;23.60;;
27670;SDS011;15077;49.704;9.908;2023-01-19T15:21:21;162.43;;;136.57;;
27670;SDS011;15077;49.704;9.908;2023-01-19T15:23:50;145.50;;;93.85;;
27670;SDS011;15077;49.704;9.908;2023-01-19T15:26:18;52.72;;;40.30;;
27670;SDS011;15077;49.704;9.908;2023-01-19T15:28:47;25.10;;;16.05;;
27670;SDS011;15077;49.704;9.908;2023-01-19T15:31:14;18.45;;;12.35;;
27670;SDS011;15077;49.704;9.908;2023-01-19T15:33:44;20.52;;;13.30;;
27670;SDS011;15077;49.704;9.908;2023-01-19T15:36:17;17.88;;;11.38;;
27670;SDS011;15077;49.704;9.908;2023-01-19T15:38:45;16.58;;;10.98;;
27670;SDS011;15077;49.704;9.908;2023-01-19T15:41:16;24.08;;;14.77;;
27670;SDS011;15077;49.704;9.908;2023-01-19T15:43:47;34.28;;;19.33;;
27670;SDS011;15077;49.704;9.908;2023-01-19T15:46:13;23.45;;;15.25;;
27670;SDS011;15077;49.704;9.908;2023-01-19T15:48:42;21.05;;;14.32;;
27670;SDS011;15077;49.704;9.908;2023-01-19T15:51:11;23.85;;;16.80;;
27670;SDS011;15077;49.704;9.908;2023-01-19T15:53:42;16.45;;;12.93;;
27670;SDS011;15077;49.704;9.908;2023-01-19T15:56:19;21.00;;;14.65;;
27670;SDS011;15077;49.704;9.908;2023-01-19T15:58:51;20.33;;;14.77;;
27670;SDS011;15077;49.704;9.908;2023-01-19T16:01:19;20.98;;;12.88;;
27670;SDS011;15077;49.704;9.908;2023-01-19T16:03:47;21.48;;;12.98;;
27670;SDS011;15077;49.704;9.908;2023-01-19T16:06:14;17.40;;;12.18;;
27670;SDS011;15077;49.704;9.908;2023-01-19T16:08:42;18.98;;;12.23;;